createdAt,value
2018-06-08T00:00:04.959Z,19.50
2018-06-08T00:01:05.049Z,19.50
2018-06-08T00:02:04.764Z,19.50
2018-06-08T00:03:05.548Z,19.50
2018-06-08T00:04:05.475Z,19.50
2018-06-08T00:05:05.419Z,19.50
2018-06-08T00:06:04.820Z,19.50
2018-06-08T00:07:04.817Z,19.50
2018-06-08T00:08:05.170Z,19.50
2018-06-08T00:09:04.812Z,19.50
2018-06-08T00:10:05.457Z,19.50
2018-06-08T00:11:05.024Z,19.40
2018-06-08T00:12:05.174Z,19.40
2018-06-08T00:13:05.594Z,19.40
2018-06-08T00:14:05.255Z,19.40
2018-06-08T00:15:05.531Z,19.40
2018-06-08T00:16:05.255Z,19.40
2018-06-08T00:17:04.868Z,19.30
2018-06-08T00:18:04.786Z,19.30
2018-06-08T00:19:05.229Z,19.30
2018-06-08T00:20:05.398Z,19.30
2018-06-08T00:21:05.454Z,19.30
2018-06-08T00:22:04.972Z,19.20
2018-06-08T00:23:05.521Z,19.20
2018-06-08T00:24:05.376Z,19.20
2018-06-08T00:25:05.110Z,19.20
2018-06-08T00:26:05.799Z,19.10
2018-06-08T00:27:05.430Z,19.10
2018-06-08T00:28:05.423Z,19.10
2018-06-08T00:29:05.340Z,19.10
2018-06-08T00:30:04.848Z,19.10
2018-06-08T00:31:05.684Z,19.10
2018-06-08T00:32:05.225Z,19.10
2018-06-08T00:33:04.652Z,19.10
2018-06-08T00:34:05.076Z,19.10
2018-06-08T00:35:05.328Z,19.10
2018-06-08T00:36:05.470Z,19.00
2018-06-08T00:37:05.586Z,19.00
2018-06-08T00:38:05.531Z,19.00
2018-06-08T00:39:05.075Z,19.00
2018-06-08T00:40:05.196Z,19.00
2018-06-08T00:41:05.473Z,19.00
2018-06-08T00:42:04.817Z,19.00
2018-06-08T00:43:04.855Z,19.00
2018-06-08T00:44:04.797Z,18.90
2018-06-08T00:45:04.772Z,18.90
2018-06-08T00:46:08.680Z,18.90
2018-06-08T00:47:04.709Z,18.90
2018-06-08T00:48:05.705Z,18.90
2018-06-08T00:49:05.168Z,18.90
2018-06-08T00:50:05.501Z,18.90
2018-06-08T00:51:05.055Z,18.90
2018-06-08T00:52:04.822Z,18.90
2018-06-08T00:53:05.228Z,18.80
2018-06-08T00:54:05.009Z,18.80
2018-06-08T00:55:05.052Z,18.80
2018-06-08T00:56:05.131Z,18.80
2018-06-08T00:57:05.182Z,18.80
2018-06-08T00:58:05.368Z,18.80
2018-06-08T00:59:05.296Z,18.80
2018-06-08T01:00:05.351Z,18.90
2018-06-08T01:01:05.153Z,18.90
2018-06-08T01:02:05.115Z,18.90
2018-06-08T01:03:05.259Z,18.90
2018-06-08T01:04:05.088Z,18.90
2018-06-08T01:05:04.608Z,18.90
2018-06-08T01:06:04.829Z,18.90
2018-06-08T01:07:04.895Z,18.90
2018-06-08T01:08:04.938Z,18.90
2018-06-08T01:09:05.047Z,18.90
2018-06-08T01:10:05.410Z,18.90
2018-06-08T01:11:05.258Z,18.90
2018-06-08T01:12:05.173Z,18.90
2018-06-08T01:13:05.119Z,18.90
2018-06-08T01:14:05.156Z,18.90
2018-06-08T01:15:05.648Z,18.90
2018-06-08T01:16:04.737Z,18.90
2018-06-08T01:17:05.406Z,18.90
2018-06-08T01:18:04.731Z,18.90
2018-06-08T01:19:04.854Z,18.80
2018-06-08T01:20:04.833Z,18.80
2018-06-08T01:21:05.100Z,18.90
2018-06-08T01:22:04.744Z,18.80
2018-06-08T01:23:05.004Z,18.80
2018-06-08T01:24:04.965Z,18.80
2018-06-08T01:25:05.568Z,18.80
2018-06-08T01:26:04.742Z,18.90
2018-06-08T01:27:05.324Z,18.80
2018-06-08T01:28:05.082Z,18.80
2018-06-08T01:29:05.266Z,18.80
2018-06-08T01:30:04.852Z,18.80
2018-06-08T01:31:05.308Z,18.80
2018-06-08T01:32:05.623Z,18.80
2018-06-08T01:33:04.951Z,18.80
2018-06-08T01:34:04.897Z,18.80
2018-06-08T01:35:04.996Z,18.80
2018-06-08T01:36:04.996Z,18.80
2018-06-08T01:37:04.877Z,18.70
2018-06-08T01:38:04.834Z,18.70
2018-06-08T01:39:04.989Z,18.70
2018-06-08T01:40:05.236Z,18.70
2018-06-08T01:41:04.836Z,18.70
2018-06-08T01:42:05.299Z,18.60
2018-06-08T01:43:04.881Z,18.60
2018-06-08T01:44:04.931Z,18.70
2018-06-08T01:45:05.317Z,18.60
2018-06-08T01:46:05.398Z,18.60
2018-06-08T01:47:05.673Z,18.60
2018-06-08T01:48:04.841Z,18.60
2018-06-08T01:49:04.995Z,18.60
2018-06-08T01:50:04.819Z,18.60
2018-06-08T01:51:05.048Z,18.60
2018-06-08T01:52:05.038Z,18.60
2018-06-08T01:53:05.698Z,18.60
2018-06-08T01:54:05.213Z,18.60
2018-06-08T01:55:04.948Z,18.60
2018-06-08T01:56:05.428Z,18.60
2018-06-08T01:57:04.911Z,18.60
2018-06-08T01:58:05.536Z,18.60
2018-06-08T01:59:05.359Z,18.60
2018-06-08T02:00:05.044Z,18.60
2018-06-08T02:01:04.932Z,18.60
2018-06-08T02:02:05.589Z,18.60
2018-06-08T02:03:04.838Z,18.60
2018-06-08T02:04:05.778Z,18.60
2018-06-08T02:05:05.614Z,18.60
2018-06-08T02:06:05.580Z,18.50
2018-06-08T02:07:05.454Z,18.50
2018-06-08T02:08:05.442Z,18.50
2018-06-08T02:09:04.944Z,18.50
2018-06-08T02:10:04.942Z,18.50
2018-06-08T02:11:05.577Z,18.50
2018-06-08T02:12:05.207Z,18.50
2018-06-08T02:13:05.311Z,18.50
2018-06-08T02:14:05.660Z,18.40
2018-06-08T02:15:05.083Z,18.40
2018-06-08T02:16:04.886Z,18.40
2018-06-08T02:17:05.245Z,18.40
2018-06-08T02:18:05.305Z,18.40
2018-06-08T02:19:04.907Z,18.40
2018-06-08T02:20:04.838Z,18.40
2018-06-08T02:21:05.059Z,18.40
2018-06-08T02:22:05.663Z,18.40
2018-06-08T02:23:04.963Z,18.30
2018-06-08T02:24:05.138Z,18.30
2018-06-08T02:25:04.728Z,18.30
2018-06-08T02:26:05.549Z,18.30
2018-06-08T02:27:05.227Z,18.30
2018-06-08T02:28:05.420Z,18.30
2018-06-08T02:29:05.737Z,18.20
2018-06-08T02:30:05.348Z,18.20
2018-06-08T02:31:05.197Z,18.20
2018-06-08T02:32:05.545Z,18.20
2018-06-08T02:33:05.157Z,18.20
2018-06-08T02:34:05.155Z,18.20
2018-06-08T02:35:05.011Z,18.10
2018-06-08T02:36:05.141Z,18.10
2018-06-08T02:37:05.266Z,18.10
2018-06-08T02:38:04.932Z,18.00
2018-06-08T02:39:05.263Z,18.00
2018-06-08T02:40:05.243Z,18.00
2018-06-08T02:41:04.818Z,18.00
2018-06-08T02:42:05.419Z,18.00
2018-06-08T02:43:05.055Z,18.00
2018-06-08T02:44:05.066Z,18.00
2018-06-08T02:45:04.789Z,17.90
2018-06-08T02:46:05.026Z,17.90
2018-06-08T02:47:05.238Z,17.90
2018-06-08T02:48:05.179Z,17.90
2018-06-08T02:49:05.617Z,17.90
2018-06-08T02:50:05.244Z,17.90
2018-06-08T02:51:05.188Z,17.90
2018-06-08T02:52:05.007Z,17.90
2018-06-08T02:53:05.627Z,17.90
2018-06-08T02:54:05.225Z,17.90
2018-06-08T02:55:05.076Z,17.90
2018-06-08T02:56:04.956Z,17.90
2018-06-08T02:57:05.410Z,17.90
2018-06-08T02:58:05.004Z,17.90
2018-06-08T02:59:04.754Z,17.90
2018-06-08T03:00:05.239Z,17.90
2018-06-08T03:01:05.201Z,17.90
2018-06-08T03:02:05.305Z,17.90
2018-06-08T03:03:05.579Z,17.90
2018-06-08T03:04:05.080Z,17.90
2018-06-08T03:05:05.215Z,17.90
2018-06-08T03:06:04.778Z,17.90
2018-06-08T03:07:05.753Z,17.90
2018-06-08T03:08:04.750Z,17.90
2018-06-08T03:09:04.933Z,17.90
2018-06-08T03:10:04.690Z,17.90
2018-06-08T03:11:05.299Z,17.90
2018-06-08T03:12:05.100Z,17.90
2018-06-08T03:13:05.385Z,17.90
2018-06-08T03:14:04.873Z,17.90
2018-06-08T03:15:04.995Z,17.90
2018-06-08T03:16:05.345Z,17.90
2018-06-08T03:17:04.981Z,17.90
2018-06-08T03:18:05.687Z,18.00
2018-06-08T03:19:05.257Z,18.00
2018-06-08T03:20:05.420Z,18.00
2018-06-08T03:21:05.467Z,18.00
2018-06-08T03:22:05.260Z,18.00
2018-06-08T03:23:05.205Z,18.00
2018-06-08T03:24:04.993Z,18.00
2018-06-08T03:25:05.191Z,18.00
2018-06-08T03:26:05.353Z,18.00
2018-06-08T03:27:05.001Z,18.00
2018-06-08T03:28:05.189Z,18.00
2018-06-08T03:29:05.227Z,18.00
2018-06-08T03:30:05.414Z,18.00
2018-06-08T03:31:05.037Z,18.00
2018-06-08T03:32:05.379Z,18.00
2018-06-08T03:33:05.578Z,18.00
2018-06-08T03:34:05.257Z,18.00
2018-06-08T03:35:05.577Z,18.00
2018-06-08T03:36:04.968Z,18.10
2018-06-08T03:37:04.996Z,18.10
2018-06-08T03:38:06.630Z,18.10
2018-06-08T03:39:05.126Z,18.10
2018-06-08T03:40:04.819Z,18.10
2018-06-08T03:41:04.769Z,18.10
2018-06-08T03:42:05.553Z,18.10
2018-06-08T03:43:05.253Z,18.20
2018-06-08T03:44:05.059Z,18.20
2018-06-08T03:45:05.572Z,18.20
2018-06-08T03:46:05.305Z,18.20
2018-06-08T03:47:05.151Z,18.20
2018-06-08T03:48:04.805Z,18.30
2018-06-08T03:49:05.299Z,18.30
2018-06-08T03:50:05.279Z,18.30
2018-06-08T03:51:05.138Z,18.40
2018-06-08T03:52:05.585Z,18.40
2018-06-08T03:53:04.824Z,18.50
2018-06-08T03:54:05.003Z,18.50
2018-06-08T03:55:04.690Z,18.60
2018-06-08T03:56:05.088Z,18.60
2018-06-08T03:57:04.654Z,18.70
2018-06-08T03:58:05.062Z,18.70
2018-06-08T03:59:04.765Z,18.80
2018-06-08T04:00:05.189Z,18.80
2018-06-08T04:01:05.484Z,18.90
2018-06-08T04:02:05.432Z,19.00
2018-06-08T04:03:05.643Z,19.10
2018-06-08T04:04:05.137Z,19.10
2018-06-08T04:05:05.185Z,19.20
2018-06-08T04:06:05.058Z,19.30
2018-06-08T04:07:05.123Z,19.40
2018-06-08T04:08:05.196Z,19.50
2018-06-08T04:09:04.820Z,19.60
2018-06-08T04:10:04.740Z,19.70
2018-06-08T04:11:05.103Z,19.80
2018-06-08T04:12:05.325Z,19.90
2018-06-08T04:13:05.346Z,20.00
2018-06-08T04:14:04.719Z,20.10
2018-06-08T04:15:05.004Z,20.20
2018-06-08T04:16:05.641Z,20.30
2018-06-08T04:17:05.522Z,20.40
2018-06-08T04:18:04.947Z,20.50
2018-06-08T04:19:05.597Z,20.60
2018-06-08T04:20:04.824Z,20.70
2018-06-08T04:21:05.406Z,20.80
2018-06-08T04:22:05.080Z,20.80
2018-06-08T04:23:05.074Z,20.90
2018-06-08T04:24:04.751Z,21.00
2018-06-08T04:25:05.088Z,21.10
2018-06-08T04:26:04.909Z,21.20
2018-06-08T04:27:04.760Z,21.20
2018-06-08T04:28:05.248Z,21.30
2018-06-08T04:29:05.545Z,21.30
2018-06-08T04:30:05.011Z,21.40
2018-06-08T04:31:04.723Z,21.50
2018-06-08T04:32:04.726Z,21.50
2018-06-08T04:33:05.115Z,21.60
2018-06-08T04:34:04.838Z,21.70
2018-06-08T04:35:04.699Z,21.80
2018-06-08T04:36:04.777Z,21.90
2018-06-08T04:37:04.766Z,21.90
2018-06-08T04:38:05.117Z,22.00
2018-06-08T04:39:05.301Z,22.10
2018-06-08T04:40:05.145Z,22.20
2018-06-08T04:41:04.851Z,22.30
2018-06-08T04:42:05.283Z,22.40
2018-06-08T04:43:04.991Z,22.40
2018-06-08T04:44:04.917Z,22.50
2018-06-08T04:45:05.688Z,22.60
2018-06-08T04:46:04.784Z,22.70
2018-06-08T04:47:05.388Z,22.80
2018-06-08T04:48:05.456Z,22.90
2018-06-08T04:49:05.444Z,23.00
2018-06-08T04:50:05.083Z,23.00
2018-06-08T04:51:05.629Z,23.10
2018-06-08T04:52:05.086Z,23.20
2018-06-08T04:53:05.432Z,23.30
2018-06-08T04:54:04.972Z,23.30
2018-06-08T04:55:04.659Z,23.40
2018-06-08T04:56:06.356Z,23.50
2018-06-08T04:57:05.434Z,23.60
2018-06-08T04:58:05.343Z,23.70
2018-06-08T04:59:05.412Z,23.70
2018-06-08T05:00:05.142Z,23.80
2018-06-08T05:01:04.641Z,23.90
2018-06-08T05:02:05.502Z,24.00
2018-06-08T05:03:04.978Z,24.10
2018-06-08T05:04:05.567Z,24.10
2018-06-08T05:05:09.842Z,24.20
2018-06-08T05:06:05.692Z,24.30
2018-06-08T05:07:04.853Z,24.40
2018-06-08T05:08:04.788Z,24.50
2018-06-08T05:09:04.829Z,24.60
2018-06-08T05:10:05.405Z,24.70
2018-06-08T05:11:04.662Z,24.70
2018-06-08T05:12:05.736Z,24.80
2018-06-08T05:13:05.192Z,24.90
2018-06-08T05:14:05.475Z,24.90
2018-06-08T05:15:05.401Z,25.00
2018-06-08T05:16:04.745Z,25.00
2018-06-08T05:17:05.512Z,25.10
2018-06-08T05:18:05.637Z,25.20
2018-06-08T05:19:05.246Z,25.20
2018-06-08T05:20:05.352Z,25.30
2018-06-08T05:21:05.241Z,25.30
2018-06-08T05:22:05.369Z,25.40
2018-06-08T05:23:05.296Z,25.50
2018-06-08T05:24:05.255Z,25.50
2018-06-08T05:25:05.443Z,25.60
2018-06-08T05:26:05.497Z,25.70
2018-06-08T05:27:05.463Z,25.70
2018-06-08T05:28:05.382Z,25.80
2018-06-08T05:29:05.385Z,25.90
2018-06-08T05:30:05.560Z,25.90
2018-06-08T05:31:05.296Z,26.00
2018-06-08T05:32:05.029Z,26.00
2018-06-08T05:33:05.536Z,26.10
2018-06-08T05:34:05.049Z,26.10
2018-06-08T05:35:05.234Z,26.20
2018-06-08T05:36:05.163Z,26.20
2018-06-08T05:37:04.761Z,26.30
2018-06-08T05:38:05.339Z,26.30
2018-06-08T05:39:05.043Z,26.40
2018-06-08T05:40:05.491Z,26.40
2018-06-08T05:41:05.110Z,26.50
2018-06-08T05:42:04.941Z,26.50
2018-06-08T05:43:06.365Z,26.60
2018-06-08T05:44:04.738Z,26.60
2018-06-08T05:45:04.934Z,26.70
2018-06-08T05:46:05.340Z,26.70
2018-06-08T05:47:05.345Z,26.70
2018-06-08T05:48:05.012Z,26.70
2018-06-08T05:49:05.286Z,26.70
2018-06-08T05:50:04.792Z,26.70
2018-06-08T05:51:05.444Z,26.80
2018-06-08T05:52:05.136Z,26.80
2018-06-08T05:53:05.674Z,26.80
2018-06-08T05:54:05.415Z,26.80
2018-06-08T05:55:05.114Z,26.80
2018-06-08T05:56:05.320Z,26.90
2018-06-08T05:57:05.054Z,26.90
2018-06-08T05:58:05.658Z,26.90
2018-06-08T05:59:04.909Z,27.00
2018-06-08T06:00:05.468Z,27.00
2018-06-08T06:01:04.760Z,27.00
2018-06-08T06:02:04.844Z,27.00
2018-06-08T06:03:05.326Z,27.10
2018-06-08T06:04:04.697Z,27.20
2018-06-08T06:05:04.998Z,27.20
2018-06-08T06:06:05.234Z,27.30
2018-06-08T06:07:05.167Z,27.30
2018-06-08T06:08:05.459Z,27.30
2018-06-08T06:09:05.279Z,27.30
2018-06-08T06:10:04.894Z,27.40
2018-06-08T06:11:04.894Z,27.40
2018-06-08T06:12:05.682Z,27.40
2018-06-08T06:13:05.355Z,27.50
2018-06-08T06:14:05.416Z,27.50
2018-06-08T06:15:05.372Z,27.60
2018-06-08T06:16:05.084Z,27.60
2018-06-08T06:17:05.048Z,27.70
2018-06-08T06:18:05.536Z,27.70
2018-06-08T06:19:05.268Z,27.70
2018-06-08T06:20:04.993Z,27.80
2018-06-08T06:21:05.170Z,27.80
2018-06-08T06:22:04.806Z,27.80
2018-06-08T06:23:05.000Z,27.90
2018-06-08T06:24:04.859Z,28.00
2018-06-08T06:25:05.321Z,28.00
2018-06-08T06:26:05.054Z,28.10
2018-06-08T06:27:04.952Z,28.10
2018-06-08T06:28:04.859Z,28.20
2018-06-08T06:29:05.045Z,28.20
2018-06-08T06:30:05.616Z,28.30
2018-06-08T06:31:05.304Z,28.40
2018-06-08T06:32:05.098Z,28.40
2018-06-08T06:33:05.095Z,28.50
2018-06-08T06:34:04.684Z,28.60
2018-06-08T06:35:05.408Z,28.60
2018-06-08T06:36:04.939Z,28.70
2018-06-08T06:37:05.267Z,28.70
2018-06-08T06:38:05.230Z,28.80
2018-06-08T06:39:04.837Z,28.80
2018-06-08T06:40:04.919Z,28.80
2018-06-08T06:41:04.842Z,28.90
2018-06-08T06:42:05.442Z,28.90
2018-06-08T06:43:04.780Z,28.90
2018-06-08T06:44:05.338Z,29.00
2018-06-08T06:45:05.324Z,29.00
2018-06-08T06:46:05.192Z,29.00
2018-06-08T06:47:05.135Z,29.00
2018-06-08T06:48:05.365Z,29.10
2018-06-08T06:49:05.116Z,29.10
2018-06-08T06:50:05.218Z,29.10
2018-06-08T06:51:05.217Z,29.20
2018-06-08T06:52:05.203Z,29.20
2018-06-08T06:53:04.955Z,29.20
2018-06-08T06:54:04.963Z,29.20
2018-06-08T06:55:04.732Z,29.30
2018-06-08T06:56:05.480Z,29.30
2018-06-08T06:57:05.469Z,29.40
2018-06-08T06:58:05.353Z,29.40
2018-06-08T06:59:04.930Z,29.40
2018-06-08T07:00:04.899Z,29.50
2018-06-08T07:01:04.704Z,29.50
2018-06-08T07:02:04.836Z,29.50
2018-06-08T07:03:04.888Z,29.50
2018-06-08T07:04:04.788Z,29.50
2018-06-08T07:05:05.497Z,29.40
2018-06-08T07:06:04.728Z,29.40
2018-06-08T07:07:04.974Z,29.50
2018-06-08T07:08:05.684Z,29.50
2018-06-08T07:09:05.205Z,29.40
2018-06-08T07:10:05.062Z,29.40
2018-06-08T07:11:05.147Z,29.40
2018-06-08T07:12:05.282Z,29.50
2018-06-08T07:13:05.459Z,29.50
2018-06-08T07:14:05.023Z,29.50
2018-06-08T07:15:05.331Z,29.60
2018-06-08T07:16:05.158Z,29.60
2018-06-08T07:17:05.655Z,29.70
2018-06-08T07:18:05.371Z,29.70
2018-06-08T07:19:06.355Z,29.70
2018-06-08T07:20:04.973Z,29.80
2018-06-08T07:21:05.641Z,29.80
2018-06-08T07:22:05.325Z,29.80
2018-06-08T07:23:05.925Z,29.80
2018-06-08T07:24:04.999Z,29.90
2018-06-08T07:25:04.791Z,29.90
2018-06-08T07:26:05.332Z,29.90
2018-06-08T07:27:05.768Z,30.00
2018-06-08T07:28:06.403Z,30.00
2018-06-08T07:29:04.852Z,30.00
2018-06-08T07:30:05.257Z,30.00
2018-06-08T07:31:05.026Z,30.00
2018-06-08T07:32:06.823Z,30.10
2018-06-08T07:33:05.122Z,30.10
2018-06-08T07:34:04.782Z,30.10
2018-06-08T07:35:04.766Z,30.10
2018-06-08T07:36:04.716Z,30.10
2018-06-08T07:37:04.831Z,30.10
2018-06-08T07:38:04.923Z,30.10
2018-06-08T07:39:05.540Z,30.10
2018-06-08T07:40:05.095Z,30.10
2018-06-08T07:41:04.704Z,30.10
2018-06-08T07:42:05.564Z,30.10
2018-06-08T07:43:05.635Z,30.20
2018-06-08T07:44:04.755Z,30.20
2018-06-08T07:45:05.132Z,30.10
2018-06-08T07:46:05.016Z,30.20
2018-06-08T07:47:05.523Z,30.20
2018-06-08T07:48:05.191Z,30.20
2018-06-08T07:49:05.324Z,30.20
2018-06-08T07:50:05.245Z,30.20
2018-06-08T07:51:04.688Z,30.20
2018-06-08T07:52:05.614Z,30.20
2018-06-08T07:53:05.147Z,30.30
2018-06-08T07:54:05.167Z,30.30
2018-06-08T07:55:04.872Z,30.30
2018-06-08T07:56:04.921Z,30.30
2018-06-08T07:57:04.866Z,30.30
2018-06-08T07:58:05.641Z,30.30
2018-06-08T07:59:05.487Z,30.40
2018-06-08T08:00:04.780Z,30.40
2018-06-08T08:01:05.433Z,30.40
2018-06-08T08:02:05.147Z,30.50
2018-06-08T08:03:05.158Z,30.50
2018-06-08T08:04:04.864Z,30.60
2018-06-08T08:05:05.651Z,30.60
2018-06-08T08:06:05.030Z,30.60
2018-06-08T08:07:05.131Z,30.60
2018-06-08T08:08:05.169Z,30.60
2018-06-08T08:09:05.204Z,30.60
2018-06-08T08:10:05.054Z,30.60
2018-06-08T08:11:04.990Z,30.60
2018-06-08T08:12:05.749Z,30.50
2018-06-08T08:13:05.194Z,30.50
2018-06-08T08:14:04.887Z,30.50
2018-06-08T08:15:04.999Z,30.40
2018-06-08T08:16:05.054Z,30.40
2018-06-08T08:17:04.708Z,30.40
2018-06-08T08:18:04.906Z,30.30
2018-06-08T08:19:04.961Z,30.30
2018-06-08T08:20:05.590Z,30.30
2018-06-08T08:21:05.103Z,30.30
2018-06-08T08:22:04.860Z,30.20
2018-06-08T08:23:05.443Z,30.30
2018-06-08T08:24:04.877Z,30.30
2018-06-08T08:25:05.508Z,30.30
2018-06-08T08:26:05.056Z,30.30
2018-06-08T08:27:05.060Z,30.30
2018-06-08T08:28:04.979Z,30.30
2018-06-08T08:29:05.409Z,30.30
2018-06-08T08:30:05.471Z,30.30
2018-06-08T08:31:05.108Z,30.30
2018-06-08T08:32:04.961Z,30.30
2018-06-08T08:33:05.166Z,30.40
2018-06-08T08:34:04.871Z,30.40
2018-06-08T08:35:04.932Z,30.40
2018-06-08T08:36:05.420Z,30.50
2018-06-08T08:37:04.841Z,30.50
2018-06-08T08:38:05.626Z,30.50
2018-06-08T08:39:05.231Z,30.50
2018-06-08T08:40:04.971Z,30.50
2018-06-08T08:41:05.009Z,30.50
2018-06-08T08:42:05.609Z,30.50
2018-06-08T08:43:05.665Z,30.50
2018-06-08T08:44:05.624Z,30.50
2018-06-08T08:45:05.445Z,30.60
2018-06-08T08:46:05.444Z,30.60
2018-06-08T08:47:05.519Z,30.60
2018-06-08T08:48:05.591Z,30.70
2018-06-08T08:49:05.724Z,30.70
2018-06-08T08:50:05.767Z,30.70
2018-06-08T08:51:05.724Z,30.70
2018-06-08T08:52:05.320Z,30.70
2018-06-08T08:53:04.867Z,30.70
2018-06-08T08:54:04.725Z,30.70
2018-06-08T08:55:04.718Z,30.70
2018-06-08T08:56:04.907Z,30.70
2018-06-08T08:57:05.498Z,30.80
2018-06-08T08:58:05.279Z,30.80
2018-06-08T08:59:04.951Z,30.70
2018-06-08T09:00:05.311Z,30.70
2018-06-08T09:01:05.335Z,30.60
2018-06-08T09:02:05.054Z,30.60
2018-06-08T09:03:05.147Z,30.50
2018-06-08T09:04:04.747Z,30.40
2018-06-08T09:05:04.988Z,30.40
2018-06-08T09:06:04.879Z,30.30
2018-06-08T09:07:04.951Z,30.30
2018-06-08T09:08:05.120Z,30.20
2018-06-08T09:09:05.125Z,30.20
2018-06-08T09:10:05.631Z,30.10
2018-06-08T09:11:05.564Z,30.10
2018-06-08T09:12:05.209Z,30.10
2018-06-08T09:13:05.650Z,30.10
2018-06-08T09:14:05.262Z,30.10
2018-06-08T09:15:04.822Z,30.20
2018-06-08T09:16:05.507Z,30.20
2018-06-08T09:17:05.517Z,30.30
2018-06-08T09:18:05.268Z,30.30
2018-06-08T09:19:04.940Z,30.30
2018-06-08T09:20:05.136Z,30.40
2018-06-08T09:21:04.706Z,30.40
2018-06-08T09:22:04.774Z,30.50
2018-06-08T09:23:05.102Z,30.60
2018-06-08T09:24:04.985Z,30.60
2018-06-08T09:25:09.680Z,30.70
2018-06-08T09:26:04.864Z,30.70
2018-06-08T09:27:05.078Z,30.70
2018-06-08T09:28:05.262Z,30.60
2018-06-08T09:29:04.961Z,30.60
2018-06-08T09:30:05.254Z,30.60
2018-06-08T09:31:05.342Z,30.60
2018-06-08T09:32:04.976Z,30.60
2018-06-08T09:33:05.492Z,30.60
2018-06-08T09:34:05.316Z,30.60
2018-06-08T09:35:05.391Z,30.60
2018-06-08T09:36:05.534Z,30.60
2018-06-08T09:37:05.371Z,30.70
2018-06-08T09:38:04.880Z,30.70
2018-06-08T09:39:05.254Z,30.70
2018-06-08T09:40:05.357Z,30.80
2018-06-08T09:41:04.881Z,30.80
2018-06-08T09:42:04.877Z,30.80
2018-06-08T09:43:04.856Z,30.80
2018-06-08T09:44:05.112Z,30.80
2018-06-08T09:45:05.070Z,30.90
2018-06-08T09:46:04.722Z,30.90
2018-06-08T09:47:05.050Z,30.90
2018-06-08T09:48:04.961Z,30.90
2018-06-08T09:49:05.022Z,30.90
2018-06-08T09:50:05.194Z,30.90
2018-06-08T09:51:05.269Z,30.90
2018-06-08T09:52:04.990Z,30.90
2018-06-08T09:53:05.534Z,30.90
2018-06-08T09:54:05.351Z,30.90
2018-06-08T09:55:04.940Z,30.90
2018-06-08T09:56:05.601Z,30.90
2018-06-08T09:57:04.878Z,30.80
2018-06-08T09:58:04.862Z,30.80
2018-06-08T09:59:05.058Z,30.80
2018-06-08T10:00:05.565Z,30.80
2018-06-08T10:01:05.551Z,30.70
2018-06-08T10:02:05.249Z,30.70
2018-06-08T10:03:04.962Z,30.60
2018-06-08T10:04:05.138Z,30.60
2018-06-08T10:05:05.189Z,30.60
2018-06-08T10:06:05.193Z,30.60
2018-06-08T10:07:04.820Z,30.60
2018-06-08T10:08:05.030Z,30.60
2018-06-08T10:09:05.516Z,30.60
2018-06-08T10:10:04.653Z,30.60
2018-06-08T10:11:04.900Z,30.60
2018-06-08T10:12:05.023Z,30.60
2018-06-08T10:13:04.997Z,30.60
2018-06-08T10:14:05.074Z,30.60
2018-06-08T10:15:05.354Z,30.70
2018-06-08T10:16:05.498Z,30.70
2018-06-08T10:17:05.553Z,30.70
2018-06-08T10:18:04.804Z,30.60
2018-06-08T10:19:05.694Z,30.60
2018-06-08T10:20:05.295Z,30.60
2018-06-08T10:21:05.183Z,30.60
2018-06-08T10:22:05.370Z,30.60
2018-06-08T10:23:05.429Z,30.60
2018-06-08T10:24:05.074Z,30.60
2018-06-08T10:25:05.244Z,30.60
2018-06-08T10:26:04.757Z,30.60
2018-06-08T10:27:04.737Z,30.60
2018-06-08T10:28:05.330Z,30.60
2018-06-08T10:29:04.950Z,30.60
2018-06-08T10:30:04.932Z,30.60
2018-06-08T10:31:04.831Z,30.60
2018-06-08T10:32:04.950Z,30.60
2018-06-08T10:33:05.892Z,30.70
2018-06-08T10:34:05.039Z,30.60
2018-06-08T10:35:04.976Z,30.60
2018-06-08T10:36:05.488Z,30.60
2018-06-08T10:37:05.642Z,30.60
2018-06-08T10:38:04.761Z,30.50
2018-06-08T10:39:04.839Z,30.50
2018-06-08T10:40:04.863Z,30.50
2018-06-08T10:41:04.816Z,30.50
2018-06-08T10:42:05.348Z,30.50
2018-06-08T10:43:05.483Z,30.50
2018-06-08T10:44:05.584Z,30.50
2018-06-08T10:45:05.506Z,30.50
2018-06-08T10:46:05.674Z,30.50
2018-06-08T10:47:05.307Z,30.40
2018-06-08T10:48:04.740Z,30.40
2018-06-08T10:49:04.828Z,30.40
2018-06-08T10:50:05.042Z,30.40
2018-06-08T10:51:05.190Z,30.40
2018-06-08T10:52:04.926Z,30.40
2018-06-08T10:53:04.833Z,30.40
2018-06-08T10:54:04.773Z,30.40
2018-06-08T10:55:04.744Z,30.40
2018-06-08T10:56:05.541Z,30.50
2018-06-08T10:57:05.532Z,30.40
2018-06-08T10:58:05.076Z,30.40
2018-06-08T10:59:05.610Z,30.40
2018-06-08T11:00:05.291Z,30.40
2018-06-08T11:01:05.150Z,30.40
2018-06-08T11:02:04.684Z,30.40
2018-06-08T11:03:04.687Z,30.40
2018-06-08T11:04:04.831Z,30.50
2018-06-08T11:05:04.959Z,30.50
2018-06-08T11:06:04.704Z,30.50
2018-06-08T11:07:04.766Z,30.40
2018-06-08T11:08:04.583Z,30.40
2018-06-08T11:09:04.873Z,30.40
2018-06-08T11:10:04.806Z,30.40
2018-06-08T11:11:04.889Z,30.40
2018-06-08T11:12:05.631Z,30.40
2018-06-08T11:13:05.191Z,30.40
2018-06-08T11:14:05.331Z,30.40
2018-06-08T11:15:05.113Z,30.40
2018-06-08T11:16:05.512Z,30.40
2018-06-08T11:17:05.518Z,30.40
2018-06-08T11:18:05.081Z,30.50
2018-06-08T11:19:05.223Z,30.50
2018-06-08T11:20:04.779Z,30.50
2018-06-08T11:21:04.784Z,30.50
2018-06-08T11:22:05.630Z,30.50
2018-06-08T11:23:05.489Z,30.60
2018-06-08T11:24:05.037Z,30.60
2018-06-08T11:25:05.413Z,30.60
2018-06-08T11:26:05.281Z,30.70
2018-06-08T11:27:04.809Z,30.70
2018-06-08T11:28:05.055Z,30.70
2018-06-08T11:29:05.060Z,30.80
2018-06-08T11:30:05.646Z,30.80
2018-06-08T11:31:05.213Z,30.80
2018-06-08T11:32:04.875Z,30.80
2018-06-08T11:33:05.543Z,30.90
2018-06-08T11:34:05.048Z,30.90
2018-06-08T11:35:05.197Z,30.90
2018-06-08T11:36:05.265Z,30.90
2018-06-08T11:37:05.500Z,31.00
2018-06-08T11:38:05.369Z,31.00
2018-06-08T11:39:05.193Z,30.90
2018-06-08T11:40:05.311Z,30.90
2018-06-08T11:41:05.275Z,30.90
2018-06-08T11:42:05.052Z,30.90
2018-06-08T11:43:05.087Z,30.80
2018-06-08T11:44:04.963Z,30.80
2018-06-08T11:45:04.807Z,30.80
2018-06-08T11:46:04.747Z,30.70
2018-06-08T11:47:05.571Z,30.70
2018-06-08T11:48:05.625Z,30.70
2018-06-08T11:49:05.565Z,30.70
2018-06-08T11:50:05.504Z,30.70
2018-06-08T11:51:05.380Z,30.70
2018-06-08T11:52:05.020Z,30.70
2018-06-08T11:53:05.590Z,30.70
2018-06-08T11:54:05.266Z,30.60
2018-06-08T11:55:04.724Z,30.50
2018-06-08T11:56:05.647Z,30.50
2018-06-08T11:57:04.708Z,30.50
2018-06-08T11:58:05.283Z,30.50
2018-06-08T11:59:05.446Z,30.50
2018-06-08T12:00:05.554Z,30.50
2018-06-08T12:01:05.543Z,30.50
2018-06-08T12:02:05.168Z,30.50
2018-06-08T12:03:05.171Z,30.50
2018-06-08T12:04:05.157Z,30.50
2018-06-08T12:05:04.864Z,30.50
2018-06-08T12:06:05.306Z,30.60
2018-06-08T12:07:05.119Z,30.60
2018-06-08T12:08:04.837Z,30.60
2018-06-08T12:09:04.870Z,30.60
2018-06-08T12:10:05.306Z,30.60
2018-06-08T12:11:05.167Z,30.60
2018-06-08T12:12:05.423Z,30.60
2018-06-08T12:13:05.428Z,30.60
2018-06-08T12:14:05.148Z,30.50
2018-06-08T12:15:05.219Z,30.40
2018-06-08T12:16:05.444Z,30.40
2018-06-08T12:17:05.219Z,30.40
2018-06-08T12:18:04.684Z,30.30
2018-06-08T12:19:04.944Z,30.30
2018-06-08T12:20:05.571Z,30.30
2018-06-08T12:21:05.201Z,30.20
2018-06-08T12:22:05.252Z,30.20
2018-06-08T12:23:05.051Z,30.20
2018-06-08T12:24:04.853Z,30.20
2018-06-08T12:25:05.036Z,30.20
2018-06-08T12:26:05.601Z,30.20
2018-06-08T12:27:04.956Z,30.20
2018-06-08T12:28:04.696Z,30.20
2018-06-08T12:29:05.570Z,30.30
2018-06-08T12:30:05.480Z,30.30
2018-06-08T12:31:04.986Z,30.30
2018-06-08T12:32:05.003Z,30.30
2018-06-08T12:33:05.052Z,30.30
2018-06-08T12:34:04.856Z,30.40
2018-06-08T12:35:04.847Z,30.40
2018-06-08T12:36:05.463Z,30.40
2018-06-08T12:37:04.846Z,30.40
2018-06-08T12:38:05.443Z,30.40
2018-06-08T12:39:05.235Z,30.40
2018-06-08T12:40:05.129Z,30.50
2018-06-08T12:41:04.844Z,30.50
2018-06-08T12:42:04.939Z,30.40
2018-06-08T12:43:04.813Z,30.40
2018-06-08T12:44:04.997Z,30.40
2018-06-08T12:45:05.091Z,30.40
2018-06-08T12:46:04.982Z,30.50
2018-06-08T12:47:04.607Z,30.50
2018-06-08T12:48:04.982Z,30.50
2018-06-08T12:49:04.694Z,30.50
2018-06-08T12:50:04.990Z,30.50
2018-06-08T12:51:05.069Z,30.50
2018-06-08T12:52:05.129Z,30.50